sensor_id;sensor_type;location;lat;lon;timestamp;pressure;altitude;pressure_sealevel;temperature;humidity
15914;BME280;8055;51.930;8.840;2023-02-02T00:01:07;76940.19;;;-145.72;100.00
15914;BME280;8055;51.930;8.840;2023-02-02T00:03:33;76940.19;;;-145.72;100.00
15914;BME280;8055;51.930;8.840;2023-02-02T00:05:59;76938.09;;;-145.72;100.00
15914;BME280;8055;51.930;8.840;2023-02-02T00:08:24;76946.38;;;-145.72;100.00
15914;BME280;8055;51.930;8.840;2023-02-02T00:10:49;76956.75;;;-145.72;100.00
15914;BME280;8055;51.930;8.840;2023-02-02T00:13:15;76956.75;;;-145.72;100.00
15914;BME280;8055;51.930;8.840;2023-02-02T00:15:40;76960.88;;;-145.72;100.00
15914;BME280;8055;51.930;8.840;2023-02-02T00:18:05;76954.66;;;-145.72;100.00
15914;BME280;8055;51.930;8.840;2023-02-02T00:20:32;76952.59;;;-145.72;100.00
15914;BME280;8055;51.930;8.840;2023-02-02T00:23:01;76952.59;;;-145.72;100.00
15914;BME280;8055;51.930;8.840;2023-02-02T00:25:27;76960.88;;;-145.72;100.00
15914;BME280;8055;51.930;8.840;2023-02-02T00:27:52;76960.88;;;-145.72;100.00
15914;BME280;8055;51.930;8.840;2023-02-02T00:30:18;76946.38;;;-145.72;100.00
15914;BME280;8055;51.930;8.840;2023-02-02T00:32:43;76948.47;;;-145.72;100.00
15914;BME280;8055;51.930;8.840;2023-02-02T00:35:08;76958.81;;;-145.72;100.00
15914;BME280;8055;51.930;8.840;2023-02-02T00:37:34;76954.66;;;-145.72;100.00
15914;BME280;8055;51.930;8.840;2023-02-02T00:39:59;76950.53;;;-145.72;100.00
15914;BME280;8055;51.930;8.840;2023-02-02T00:42:25;76944.31;;;-145.72;100.00
15914;BME280;8055;51.930;8.840;2023-02-02T00:44:50;76944.31;;;-145.72;100.00
15914;BME280;8055;51.930;8.840;2023-02-02T00:47:34;76946.38;;;-145.72;100.00
15914;BME280;8055;51.930;8.840;2023-02-02T00:50:00;76950.53;;;-145.72;100.00
15914;BME280;8055;51.930;8.840;2023-02-02T00:52:25;76944.31;;;-145.72;100.00
15914;BME280;8055;51.930;8.840;2023-02-02T00:54:51;76954.66;;;-145.72;100.00
15914;BME280;8055;51.930;8.840;2023-02-02T00:57:16;76956.75;;;-145.72;100.00
15914;BME280;8055;51.930;8.840;2023-02-02T00:59:42;76954.66;;;-145.72;100.00
15914;BME280;8055;51.930;8.840;2023-02-02T01:02:09;76944.31;;;-145.72;100.00
15914;BME280;8055;51.930;8.840;2023-02-02T01:04:34;76973.28;;;-145.72;100.00
15914;BME280;8055;51.930;8.840;2023-02-02T01:07:00;76983.66;;;-145.72;100.00
15914;BME280;8055;51.930;8.840;2023-02-02T01:09:25;77004.34;;;-145.72;100.00
15914;BME280;8055;51.930;8.840;2023-02-02T01:11:51;76983.66;;;-145.72;100.00
15914;BME280;8055;51.930;8.840;2023-02-02T01:14:16;76979.50;;;-145.72;100.00
15914;BME280;8055;51.930;8.840;2023-02-02T01:16:41;76987.78;;;-145.72;100.00
15914;BME280;8055;51.930;8.840;2023-02-02T01:19:07;76989.84;;;-145.72;100.00
15914;BME280;8055;51.930;8.840;2023-02-02T01:21:33;76991.94;;;-145.72;100.00
15914;BME280;8055;51.930;8.840;2023-02-02T01:23:58;76989.84;;;-145.72;100.00
15914;BME280;8055;51.930;8.840;2023-02-02T01:26:23;76991.94;;;-145.72;100.00
15914;BME280;8055;51.930;8.840;2023-02-02T01:28:49;76989.84;;;-145.72;100.00
15914;BME280;8055;51.930;8.840;2023-02-02T01:31:19;76977.44;;;-145.72;100.00
15914;BME280;8055;51.930;8.840;2023-02-02T01:33:46;76991.94;;;-145.72;100.00
15914;BME280;8055;51.930;8.840;2023-02-02T01:36:14;76994.00;;;-145.72;100.00
15914;BME280;8055;51.930;8.840;2023-02-02T01:38:40;76979.50;;;-145.72;100.00
15914;BME280;8055;51.930;8.840;2023-02-02T01:41:07;76996.06;;;-145.72;100.00
15914;BME280;8055;51.930;8.840;2023-02-02T01:46:15;77020.91;;;-145.72;100.00
15914;BME280;8055;51.930;8.840;2023-02-02T01:48:44;77020.91;;;-145.72;100.00
15914;BME280;8055;51.930;8.840;2023-02-02T01:51:14;77020.91;;;-145.72;100.00
15914;BME280;8055;51.930;8.840;2023-02-02T01:53:41;77014.69;;;-145.72;100.00
15914;BME280;8055;51.930;8.840;2023-02-02T01:56:10;77016.75;;;-145.72;100.00
15914;BME280;8055;51.930;8.840;2023-02-02T01:58:38;77008.47;;;-145.72;100.00
15914;BME280;8055;51.930;8.840;2023-02-02T02:01:06;77020.91;;;-145.72;100.00
15914;BME280;8055;51.930;8.840;2023-02-02T02:03:32;77022.97;;;-145.72;100.00
15914;BME280;8055;51.930;8.840;2023-02-02T02:06:06;77037.47;;;-145.72;100.00
15914;BME280;8055;51.930;8.840;2023-02-02T02:08:35;77029.19;;;-145.72;100.00
15914;BME280;8055;51.930;8.840;2023-02-02T02:11:02;77033.31;;;-145.72;100.00
15914;BME280;8055;51.930;8.840;2023-02-02T02:13:28;77033.31;;;-145.72;100.00
15914;BME280;8055;51.930;8.840;2023-02-02T02:22:05;77025.03;;;-145.72;100.00
15914;BME280;8055;51.930;8.840;2023-02-02T02:36:07;77058.16;;;-145.72;100.00
15914;BME280;8055;51.930;8.840;2023-02-02T02:38:46;77054.03;;;-145.72;100.00
15914;BME280;8055;51.930;8.840;2023-02-02T02:41:18;77060.22;;;-145.72;100.00
15914;BME280;8055;51.930;8.840;2023-02-02T02:43:50;77049.88;;;-145.72;100.00
15914;BME280;8055;51.930;8.840;2023-02-02T02:46:17;77058.16;;;-145.72;100.00
15914;BME280;8055;51.930;8.840;2023-02-02T02:48:44;77051.94;;;-145.72;100.00
15914;BME280;8055;51.930;8.840;2023-02-02T02:51:39;77037.47;;;-145.72;100.00
15914;BME280;8055;51.930;8.840;2023-02-02T02:54:06;77049.88;;;-145.72;100.00
15914;BME280;8055;51.930;8.840;2023-02-02T02:56:40;77043.66;;;-145.72;100.00
15914;BME280;8055;51.930;8.840;2023-02-02T03:02:01;77043.66;;;-145.72;100.00
15914;BME280;8055;51.930;8.840;2023-02-02T03:04:43;77043.66;;;-145.72;100.00
15914;BME280;8055;51.930;8.840;2023-02-02T03:07:21;77031.25;;;-145.72;100.00
15914;BME280;8055;51.930;8.840;2023-02-02T03:09:48;77047.81;;;-145.72;100.00
15914;BME280;8055;51.930;8.840;2023-02-02T03:12:16;77058.16;;;-145.72;100.00
15914;BME280;8055;51.930;8.840;2023-02-02T03:14:42;77060.22;;;-145.72;100.00
15914;BME280;8055;51.930;8.840;2023-02-02T03:17:07;77051.94;;;-145.72;100.00
15914;BME280;8055;51.930;8.840;2023-02-02T03:19:32;77041.59;;;-145.72;100.00
15914;BME280;8055;51.930;8.840;2023-02-02T03:21:58;77035.38;;;-145.72;100.00
15914;BME280;8055;51.930;8.840;2023-02-02T03:24:23;77033.31;;;-145.72;100.00
15914;BME280;8055;51.930;8.840;2023-02-02T03:26:49;77029.19;;;-145.72;100.00
15914;BME280;8055;51.930;8.840;2023-02-02T03:29:15;77022.97;;;-145.72;100.00
15914;BME280;8055;51.930;8.840;2023-02-02T03:31:41;77035.38;;;-145.72;100.00
15914;BME280;8055;51.930;8.840;2023-02-02T03:34:06;77022.97;;;-145.72;100.00
15914;BME280;8055;51.930;8.840;2023-02-02T03:36:31;77022.97;;;-145.72;100.00
15914;BME280;8055;51.930;8.840;2023-02-02T03:38:57;77025.03;;;-145.72;100.00
15914;BME280;8055;51.930;8.840;2023-02-02T03:41:22;77031.25;;;-145.72;100.00
15914;BME280;8055;51.930;8.840;2023-02-02T03:43:47;77035.38;;;-145.72;100.00
15914;BME280;8055;51.930;8.840;2023-02-02T03:46:13;77031.25;;;-145.72;100.00
15914;BME280;8055;51.930;8.840;2023-02-02T03:48:38;77027.13;;;-145.72;100.00
15914;BME280;8055;51.930;8.840;2023-02-02T03:51:12;77033.31;;;-145.72;100.00
15914;BME280;8055;51.930;8.840;2023-02-02T03:53:39;77035.38;;;-145.72;100.00
15914;BME280;8055;51.930;8.840;2023-02-02T03:56:05;77035.38;;;-145.72;100.00
15914;BME280;8055;51.930;8.840;2023-02-02T03:58:30;77031.25;;;-145.72;100.00
15914;BME280;8055;51.930;8.840;2023-02-02T04:01:04;77033.31;;;-145.72;100.00
15914;BME280;8055;51.930;8.840;2023-02-02T04:03:29;77025.03;;;-145.72;100.00
15914;BME280;8055;51.930;8.840;2023-02-02T04:05:55;77025.03;;;-145.72;100.00
15914;BME280;8055;51.930;8.840;2023-02-02T04:08:20;77010.56;;;-145.72;100.00
15914;BME280;8055;51.930;8.840;2023-02-02T04:10:45;77016.75;;;-145.72;100.00
15914;BME280;8055;51.930;8.840;2023-02-02T04:13:11;77022.97;;;-145.72;100.00
15914;BME280;8055;51.930;8.840;2023-02-02T04:15:36;77018.84;;;-145.72;100.00
15914;BME280;8055;51.930;8.840;2023-02-02T04:18:01;77014.69;;;-145.72;100.00
15914;BME280;8055;51.930;8.840;2023-02-02T04:20:27;77018.84;;;-145.72;100.00
15914;BME280;8055;51.930;8.840;2023-02-02T04:22:53;77006.41;;;-145.72;100.00
15914;BME280;8055;51.930;8.840;2023-02-02T04:25:19;77008.47;;;-145.72;100.00
15914;BME280;8055;51.930;8.840;2023-02-02T04:27:44;77012.63;;;-145.72;100.00
15914;BME280;8055;51.930;8.840;2023-02-02T04:30:10;77020.91;;;-145.72;100.00
15914;BME280;8055;51.930;8.840;2023-02-02T04:32:35;77018.84;;;-145.72;100.00
15914;BME280;8055;51.930;8.840;2023-02-02T04:35:01;77025.03;;;-145.72;100.00
15914;BME280;8055;51.930;8.840;2023-02-02T04:37:26;77029.19;;;-145.72;100.00
15914;BME280;8055;51.930;8.840;2023-02-02T04:39:54;77022.97;;;-145.72;100.00
15914;BME280;8055;51.930;8.840;2023-02-02T04:42:19;77016.75;;;-145.72;100.00
15914;BME280;8055;51.930;8.840;2023-02-02T04:44:45;77004.34;;;-145.72;100.00
15914;BME280;8055;51.930;8.840;2023-02-02T04:47:10;77008.47;;;-145.72;100.00
15914;BME280;8055;51.930;8.840;2023-02-02T04:49:36;77020.91;;;-145.72;100.00
15914;BME280;8055;51.930;8.840;2023-02-02T04:52:02;76991.94;;;-145.72;100.00
15914;BME280;8055;51.930;8.840;2023-02-02T04:54:27;77004.34;;;-145.72;100.00
15914;BME280;8055;51.930;8.840;2023-02-02T04:56:52;77004.34;;;-145.72;100.00
15914;BME280;8055;51.930;8.840;2023-02-02T04:59:18;77012.63;;;-145.72;100.00
15914;BME280;8055;51.930;8.840;2023-02-02T05:01:43;77002.28;;;-145.72;100.00
15914;BME280;8055;51.930;8.840;2023-02-02T05:04:10;77004.34;;;-145.72;100.00
15914;BME280;8055;51.930;8.840;2023-02-02T05:06:35;77004.34;;;-145.72;100.00
15914;BME280;8055;51.930;8.840;2023-02-02T05:09:01;77002.28;;;-145.72;100.00
15914;BME280;8055;51.930;8.840;2023-02-02T05:11:26;77010.56;;;-145.72;100.00
15914;BME280;8055;51.930;8.840;2023-02-02T05:13:53;77010.56;;;-145.72;100.00
15914;BME280;8055;51.930;8.840;2023-02-02T05:16:19;77010.56;;;-145.72;100.00
15914;BME280;8055;51.930;8.840;2023-02-02T05:18:53;77002.28;;;-145.72;100.00
15914;BME280;8055;51.930;8.840;2023-02-02T05:21:20;77000.19;;;-145.72;100.00
15914;BME280;8055;51.930;8.840;2023-02-02T05:23:46;77012.63;;;-145.72;100.00
15914;BME280;8055;51.930;8.840;2023-02-02T05:26:17;77010.56;;;-145.72;100.00
15914;BME280;8055;51.930;8.840;2023-02-02T05:28:43;77012.63;;;-145.72;100.00
15914;BME280;8055;51.930;8.840;2023-02-02T05:31:09;77008.47;;;-145.72;100.00
15914;BME280;8055;51.930;8.840;2023-02-02T05:33:34;77016.75;;;-145.72;100.00
15914;BME280;8055;51.930;8.840;2023-02-02T05:36:00;77035.38;;;-145.72;100.00
15914;BME280;8055;51.930;8.840;2023-02-02T05:38:25;77039.53;;;-145.72;100.00
15914;BME280;8055;51.930;8.840;2023-02-02T05:40:50;77035.38;;;-145.72;100.00
15914;BME280;8055;51.930;8.840;2023-02-02T05:43:16;77037.47;;;-145.72;100.00
15914;BME280;8055;51.930;8.840;2023-02-02T05:45:41;77039.53;;;-145.72;100.00
15914;BME280;8055;51.930;8.840;2023-02-02T05:48:09;77037.47;;;-145.72;100.00
15914;BME280;8055;51.930;8.840;2023-02-02T05:50:36;77041.59;;;-145.72;100.00
15914;BME280;8055;51.930;8.840;2023-02-02T05:53:02;77051.94;;;-145.72;100.00
15914;BME280;8055;51.930;8.840;2023-02-02T05:55:27;77058.16;;;-145.72;100.00
15914;BME280;8055;51.930;8.840;2023-02-02T05:57:53;77056.09;;;-145.72;100.00
15914;BME280;8055;51.930;8.840;2023-02-02T06:00:19;77056.09;;;-145.72;100.00
15914;BME280;8055;51.930;8.840;2023-02-02T06:02:44;77074.72;;;-145.72;100.00
15914;BME280;8055;51.930;8.840;2023-02-02T06:05:09;77074.72;;;-145.72;100.00
15914;BME280;8055;51.930;8.840;2023-02-02T06:07:35;77085.06;;;-145.72;100.00
15914;BME280;8055;51.930;8.840;2023-02-02T06:10:00;77095.41;;;-145.72;100.00
15914;BME280;8055;51.930;8.840;2023-02-02T06:12:26;77097.50;;;-145.72;100.00
15914;BME280;8055;51.930;8.840;2023-02-02T06:14:51;77109.91;;;-145.72;100.00
15914;BME280;8055;51.930;8.840;2023-02-02T06:17:17;77111.97;;;-145.72;100.00
15914;BME280;8055;51.930;8.840;2023-02-02T06:19:42;77126.47;;;-145.72;100.00
15914;BME280;8055;51.930;8.840;2023-02-02T06:22:07;77130.59;;;-145.72;100.00
15914;BME280;8055;51.930;8.840;2023-02-02T06:24:33;77124.41;;;-145.72;100.00
15914;BME280;8055;51.930;8.840;2023-02-02T06:26:58;77134.75;;;-145.72;100.00
15914;BME280;8055;51.930;8.840;2023-02-02T06:29:24;77140.97;;;-145.72;100.00
15914;BME280;8055;51.930;8.840;2023-02-02T06:31:49;77140.97;;;-145.72;100.00
15914;BME280;8055;51.930;8.840;2023-02-02T06:34:14;77153.38;;;-145.72;100.00
15914;BME280;8055;51.930;8.840;2023-02-02T06:36:40;77145.09;;;-145.72;100.00
15914;BME280;8055;51.930;8.840;2023-02-02T06:39:06;77159.59;;;-145.72;100.00
15914;BME280;8055;51.930;8.840;2023-02-02T06:41:33;77169.94;;;-145.72;100.00
15914;BME280;8055;51.930;8.840;2023-02-02T06:43:58;77172.00;;;-145.72;100.00
15914;BME280;8055;51.930;8.840;2023-02-02T06:46:24;77180.28;;;-145.72;100.00
15914;BME280;8055;51.930;8.840;2023-02-02T06:48:49;77167.88;;;-145.72;100.00
15914;BME280;8055;51.930;8.840;2023-02-02T06:51:15;77176.16;;;-145.72;100.00
15914;BME280;8055;51.930;8.840;2023-02-02T06:53:40;77186.50;;;-145.72;100.00
15914;BME280;8055;51.930;8.840;2023-02-02T06:56:12;77194.78;;;-145.72;100.00
15914;BME280;8055;51.930;8.840;2023-02-02T06:58:37;77194.78;;;-145.72;100.00
15914;BME280;8055;51.930;8.840;2023-02-02T07:01:05;77200.97;;;-145.72;100.00
15914;BME280;8055;51.930;8.840;2023-02-02T07:03:32;77209.25;;;-145.72;100.00
15914;BME280;8055;51.930;8.840;2023-02-02T07:05:58;77221.69;;;-145.72;100.00
15914;BME280;8055;51.930;8.840;2023-02-02T07:08:24;77219.63;;;-145.72;100.00
15914;BME280;8055;51.930;8.840;2023-02-02T07:10:49;77221.69;;;-145.72;100.00
15914;BME280;8055;51.930;8.840;2023-02-02T07:13:14;77227.91;;;-145.72;100.00
15914;BME280;8055;51.930;8.840;2023-02-02T07:15:40;77232.03;;;-145.72;100.00
15914;BME280;8055;51.930;8.840;2023-02-02T07:18:06;77238.25;;;-145.72;100.00
15914;BME280;8055;51.930;8.840;2023-02-02T07:20:31;77246.53;;;-145.72;100.00
15914;BME280;8055;51.930;8.840;2023-02-02T07:22:57;77250.66;;;-145.72;100.00
15914;BME280;8055;51.930;8.840;2023-02-02T07:25:23;77261.00;;;-145.72;100.00
15914;BME280;8055;51.930;8.840;2023-02-02T07:27:52;77258.94;;;-145.72;100.00
15914;BME280;8055;51.930;8.840;2023-02-02T07:30:18;77265.16;;;-145.72;100.00
15914;BME280;8055;51.930;8.840;2023-02-02T07:32:47;77265.16;;;-145.72;100.00
15914;BME280;8055;51.930;8.840;2023-02-02T07:35:13;77271.38;;;-145.72;100.00
15914;BME280;8055;51.930;8.840;2023-02-02T07:37:39;77275.50;;;-145.72;100.00
15914;BME280;8055;51.930;8.840;2023-02-02T07:40:04;77285.84;;;-145.72;100.00
15914;BME280;8055;51.930;8.840;2023-02-02T07:42:30;77287.94;;;-145.72;100.00
15914;BME280;8055;51.930;8.840;2023-02-02T07:44:55;77290.00;;;-145.72;100.00
15914;BME280;8055;51.930;8.840;2023-02-02T07:47:21;77294.13;;;-145.72;100.00
15914;BME280;8055;51.930;8.840;2023-02-02T07:49:46;77296.19;;;-145.72;100.00
15914;BME280;8055;51.930;8.840;2023-02-02T07:52:11;77304.47;;;-145.72;100.00
15914;BME280;8055;51.930;8.840;2023-02-02T07:54:37;77304.47;;;-145.72;100.00
15914;BME280;8055;51.930;8.840;2023-02-02T07:57:02;77306.56;;;-145.72;100.00
15914;BME280;8055;51.930;8.840;2023-02-02T07:59:27;77306.56;;;-145.72;100.00
15914;BME280;8055;51.930;8.840;2023-02-02T08:01:53;77308.63;;;-145.72;100.00
15914;BME280;8055;51.930;8.840;2023-02-02T08:04:18;77321.03;;;-145.72;100.00
15914;BME280;8055;51.930;8.840;2023-02-02T08:06:44;77321.03;;;-145.72;100.00
15914;BME280;8055;51.930;8.840;2023-02-02T08:09:09;77325.19;;;-145.72;100.00
15914;BME280;8055;51.930;8.840;2023-02-02T08:11:36;77318.97;;;-145.72;100.00
15914;BME280;8055;51.930;8.840;2023-02-02T08:14:03;77333.47;;;-145.72;100.00
15914;BME280;8055;51.930;8.840;2023-02-02T08:16:29;77339.69;;;-145.72;100.00
15914;BME280;8055;51.930;8.840;2023-02-02T08:18:56;77352.09;;;-145.72;100.00
15914;BME280;8055;51.930;8.840;2023-02-02T08:21:21;77352.09;;;-145.72;100.00
15914;BME280;8055;51.930;8.840;2023-02-02T08:23:47;77354.16;;;-145.72;100.00
15914;BME280;8055;51.930;8.840;2023-02-02T08:26:21;77345.88;;;-145.72;100.00
15914;BME280;8055;51.930;8.840;2023-02-02T08:28:51;77350.03;;;-145.72;100.00
15914;BME280;8055;51.930;8.840;2023-02-02T08:31:22;77343.81;;;-145.72;100.00
15914;BME280;8055;51.930;8.840;2023-02-02T08:33:48;77345.88;;;-145.72;100.00
15914;BME280;8055;51.930;8.840;2023-02-02T08:36:16;77354.16;;;-145.72;100.00
15914;BME280;8055;51.930;8.840;2023-02-02T08:38:42;77354.16;;;-145.72;100.00
15914;BME280;8055;51.930;8.840;2023-02-02T08:41:09;77358.31;;;-145.72;100.00
15914;BME280;8055;51.930;8.840;2023-02-02T08:43:35;77350.03;;;-145.72;100.00
15914;BME280;8055;51.930;8.840;2023-02-02T08:46:01;77358.31;;;-145.72;100.00
15914;BME280;8055;51.930;8.840;2023-02-02T08:48:27;77358.31;;;-145.72;100.00
15914;BME280;8055;51.930;8.840;2023-02-02T08:50:53;77360.38;;;-145.72;100.00
15914;BME280;8055;51.930;8.840;2023-02-02T08:53:20;77356.25;;;-145.72;100.00
15914;BME280;8055;51.930;8.840;2023-02-02T08:55:45;77364.50;;;-145.72;100.00
15914;BME280;8055;51.930;8.840;2023-02-02T08:58:10;77360.38;;;-145.72;100.00
15914;BME280;8055;51.930;8.840;2023-02-02T09:00:36;77354.16;;;-145.72;100.00
15914;BME280;8055;51.930;8.840;2023-02-02T09:03:01;77356.25;;;-145.72;100.00
15914;BME280;8055;51.930;8.840;2023-02-02T09:05:26;77358.31;;;-145.72;100.00
15914;BME280;8055;51.930;8.840;2023-02-02T09:07:52;77347.94;;;-145.72;100.00
15914;BME280;8055;51.930;8.840;2023-02-02T09:10:17;77347.94;;;-145.72;100.00
15914;BME280;8055;51.930;8.840;2023-02-02T09:12:43;77354.16;;;-145.72;100.00
15914;BME280;8055;51.930;8.840;2023-02-02T09:15:08;77360.38;;;-145.72;100.00
15914;BME280;8055;51.930;8.840;2023-02-02T09:17:34;77358.31;;;-145.72;100.00
15914;BME280;8055;51.930;8.840;2023-02-02T09:19:59;77358.31;;;-145.72;100.00
15914;BME280;8055;51.930;8.840;2023-02-02T09:22:24;77354.16;;;-145.72;100.00
15914;BME280;8055;51.930;8.840;2023-02-02T09:24:50;77356.25;;;-145.72;100.00
15914;BME280;8055;51.930;8.840;2023-02-02T09:27:15;77356.25;;;-145.72;100.00
15914;BME280;8055;51.930;8.840;2023-02-02T09:29:40;77360.38;;;-145.72;100.00
15914;BME280;8055;51.930;8.840;2023-02-02T09:32:06;77364.50;;;-145.72;100.00
15914;BME280;8055;51.930;8.840;2023-02-02T09:34:31;77360.38;;;-145.72;100.00
15914;BME280;8055;51.930;8.840;2023-02-02T09:36:57;77370.72;;;-145.72;100.00
15914;BME280;8055;51.930;8.840;2023-02-02T09:39:22;77368.66;;;-145.72;100.00
15914;BME280;8055;51.930;8.840;2023-02-02T09:44:58;77356.25;;;-145.72;100.00
15914;BME280;8055;51.930;8.840;2023-02-02T09:47:48;77360.38;;;-145.72;100.00
15914;BME280;8055;51.930;8.840;2023-02-02T09:53:02;77356.25;;;-145.72;100.00
15914;BME280;8055;51.930;8.840;2023-02-02T09:55:34;77354.16;;;-145.72;100.00
15914;BME280;8055;51.930;8.840;2023-02-02T09:58:09;77356.25;;;-145.72;100.00
15914;BME280;8055;51.930;8.840;2023-02-02T10:00:40;77360.38;;;-145.72;100.00
15914;BME280;8055;51.930;8.840;2023-02-02T10:03:33;77352.09;;;-145.72;100.00
15914;BME280;8055;51.930;8.840;2023-02-02T10:06:41;77362.44;;;-145.72;100.00
15914;BME280;8055;51.930;8.840;2023-02-02T10:15:04;77358.31;;;-145.72;100.00
15914;BME280;8055;51.930;8.840;2023-02-02T10:17:50;77358.31;;;-145.72;100.00
15914;BME280;8055;51.930;8.840;2023-02-02T10:22:58;77366.59;;;-145.72;100.00
15914;BME280;8055;51.930;8.840;2023-02-02T10:25:29;77364.50;;;-145.72;100.00
15914;BME280;8055;51.930;8.840;2023-02-02T10:28:16;77362.44;;;-145.72;100.00
15914;BME280;8055;51.930;8.840;2023-02-02T10:33:14;77364.50;;;-145.72;100.00
15914;BME280;8055;51.930;8.840;2023-02-02T10:35:52;77368.66;;;-145.72;100.00
15914;BME280;8055;51.930;8.840;2023-02-02T10:38:59;77343.81;;;-145.72;100.00
15914;BME280;8055;51.930;8.840;2023-02-02T10:41:53;77364.50;;;-145.72;100.00
15914;BME280;8055;51.930;8.840;2023-02-02T10:47:10;77366.59;;;-145.72;100.00
15914;BME280;8055;51.930;8.840;2023-02-02T10:49:38;77366.59;;;-145.72;100.00
15914;BME280;8055;51.930;8.840;2023-02-02T10:55:36;77368.66;;;-145.72;100.00
15914;BME280;8055;51.930;8.840;2023-02-02T11:03:09;77381.06;;;-145.72;100.00
15914;BME280;8055;51.930;8.840;2023-02-02T11:05:35;77372.78;;;-145.72;100.00
15914;BME280;8055;51.930;8.840;2023-02-02T11:10:52;77364.50;;;-145.72;100.00
15914;BME280;8055;51.930;8.840;2023-02-02T11:13:32;77364.50;;;-145.72;100.00
15914;BME280;8055;51.930;8.840;2023-02-02T11:18:39;77364.50;;;-145.72;100.00
15914;BME280;8055;51.930;8.840;2023-02-02T11:21:23;77366.59;;;-145.72;100.00
15914;BME280;8055;51.930;8.840;2023-02-02T11:23:56;77354.16;;;-145.72;100.00
15914;BME280;8055;51.930;8.840;2023-02-02T11:26:24;77366.59;;;-145.72;100.00
15914;BME280;8055;51.930;8.840;2023-02-02T11:28:52;77364.50;;;-145.72;100.00
15914;BME280;8055;51.930;8.840;2023-02-02T11:31:48;77356.25;;;-145.72;100.00
15914;BME280;8055;51.930;8.840;2023-02-02T11:34:26;77358.31;;;-145.72;100.00
15914;BME280;8055;51.930;8.840;2023-02-02T11:37:00;77356.25;;;-145.72;100.00
15914;BME280;8055;51.930;8.840;2023-02-02T11:39:26;77352.09;;;-145.72;100.00
15914;BME280;8055;51.930;8.840;2023-02-02T11:42:11;77343.81;;;-145.72;100.00
15914;BME280;8055;51.930;8.840;2023-02-02T11:44:38;77335.53;;;-145.72;100.00
15914;BME280;8055;51.930;8.840;2023-02-02T11:47:04;77347.94;;;-145.72;100.00
15914;BME280;8055;51.930;8.840;2023-02-02T11:49:36;77347.94;;;-145.72;100.00
15914;BME280;8055;51.930;8.840;2023-02-02T11:52:05;77352.09;;;-145.72;100.00
15914;BME280;8055;51.930;8.840;2023-02-02T11:54:39;77345.88;;;-145.72;100.00
15914;BME280;8055;51.930;8.840;2023-02-02T11:57:08;77341.75;;;-145.72;100.00
15914;BME280;8055;51.930;8.840;2023-02-02T11:59:39;77354.16;;;-145.72;100.00
15914;BME280;8055;51.930;8.840;2023-02-02T12:04:36;77341.75;;;-145.72;100.00
15914;BME280;8055;51.930;8.840;2023-02-02T12:07:17;77339.69;;;-145.72;100.00
15914;BME280;8055;51.930;8.840;2023-02-02T12:09:43;77327.25;;;-145.72;100.00
15914;BME280;8055;51.930;8.840;2023-02-02T12:15:05;77331.41;;;-145.72;100.00
15914;BME280;8055;51.930;8.840;2023-02-02T12:17:41;77321.03;;;-145.72;100.00
15914;BME280;8055;51.930;8.840;2023-02-02T12:23:21;77316.91;;;-145.72;100.00
15914;BME280;8055;51.930;8.840;2023-02-02T12:33:53;77312.75;;;-145.72;100.00
15914;BME280;8055;51.930;8.840;2023-02-02T12:36:35;77308.63;;;-145.72;100.00
15914;BME280;8055;51.930;8.840;2023-02-02T12:42:05;77310.69;;;-145.72;100.00
15914;BME280;8055;51.930;8.840;2023-02-02T12:53:02;77314.84;;;-145.72;100.00
15914;BME280;8055;51.930;8.840;2023-02-02T12:55:56;77312.75;;;-145.72;100.00
15914;BME280;8055;51.930;8.840;2023-02-02T13:03:59;77318.97;;;-145.72;100.00
15914;BME280;8055;51.930;8.840;2023-02-02T13:06:50;77327.25;;;-145.72;100.00
15914;BME280;8055;51.930;8.840;2023-02-02T13:12:10;77345.88;;;-145.72;100.00
15914;BME280;8055;51.930;8.840;2023-02-02T13:14:47;77341.75;;;-145.72;100.00
15914;BME280;8055;51.930;8.840;2023-02-02T13:17:30;77347.94;;;-145.72;100.00
15914;BME280;8055;51.930;8.840;2023-02-02T13:20:13;77347.94;;;-145.72;100.00
15914;BME280;8055;51.930;8.840;2023-02-02T13:22:41;77360.38;;;-145.72;100.00
15914;BME280;8055;51.930;8.840;2023-02-02T13:25:33;77362.44;;;-145.72;100.00
15914;BME280;8055;51.930;8.840;2023-02-02T13:28:03;77356.25;;;-145.72;100.00
15914;BME280;8055;51.930;8.840;2023-02-02T13:30:33;77364.50;;;-145.72;100.00
15914;BME280;8055;51.930;8.840;2023-02-02T13:33:04;77364.50;;;-145.72;100.00
15914;BME280;8055;51.930;8.840;2023-02-02T13:35:34;77374.88;;;-145.72;100.00
15914;BME280;8055;51.930;8.840;2023-02-02T13:40:42;77368.66;;;-145.72;100.00
15914;BME280;8055;51.930;8.840;2023-02-02T13:49:27;77385.22;;;-145.72;100.00
15914;BME280;8055;51.930;8.840;2023-02-02T13:52:07;77389.34;;;-145.72;100.00
15914;BME280;8055;51.930;8.840;2023-02-02T13:54:56;77383.16;;;-145.72;100.00
15914;BME280;8055;51.930;8.840;2023-02-02T13:57:39;77395.56;;;-145.72;100.00
15914;BME280;8055;51.930;8.840;2023-02-02T14:00:24;77395.56;;;-145.72;100.00
15914;BME280;8055;51.930;8.840;2023-02-02T14:02:56;77403.84;;;-145.72;100.00
15914;BME280;8055;51.930;8.840;2023-02-02T14:05:38;77405.91;;;-145.72;100.00
15914;BME280;8055;51.930;8.840;2023-02-02T14:08:19;77408.00;;;-145.72;100.00
15914;BME280;8055;51.930;8.840;2023-02-02T14:13:23;77418.34;;;-145.72;100.00
15914;BME280;8055;51.930;8.840;2023-02-02T14:16:21;77416.28;;;-145.72;100.00
15914;BME280;8055;51.930;8.840;2023-02-02T14:18:50;77422.47;;;-145.72;100.00
15914;BME280;8055;51.930;8.840;2023-02-02T14:34:36;77430.75;;;-145.72;100.00
15914;BME280;8055;51.930;8.840;2023-02-02T14:50:17;77449.38;;;-145.72;100.00
15914;BME280;8055;51.930;8.840;2023-02-02T14:52:59;77447.31;;;-145.72;100.00
15914;BME280;8055;51.930;8.840;2023-02-02T14:55:26;77447.31;;;-145.72;100.00
15914;BME280;8055;51.930;8.840;2023-02-02T14:57:57;77457.66;;;-145.72;100.00
15914;BME280;8055;51.930;8.840;2023-02-02T15:00:27;77463.88;;;-145.72;100.00